Time;durP1;ratioP1;P1;durP2;ratioP2;P2;SDS_P1;SDS_P2;PMS_P1;PMS_P2;Temp;Humidity;BMP_temperature;BMP_pressure;BME280_temperature;BME280_humidity;BME280_pressure;Samples;Min_cycle;Max_cycle;Signal;HPM_P1;HPM_P2
2022/12/03 00:01:40;;;;;;;;;55.75;44.75;;;;;;;;5078940;28;45469;-73
2022/12/03 00:04:06;;;;;;;;;54.75;41.25;;;;;;;;5084991;27;45535;-73
2022/12/03 00:06:31;;;;;;;;;59.75;47.75;;;;;;;;5094097;27;45297;-73
2022/12/03 00:08:56;;;;;;;;;58.50;45.00;;;;;;;;5095533;27;48066;-73
2022/12/03 00:11:21;;;;;;;;;47.75;36.25;;;;;;;;5084559;27;45305;-73
2022/12/03 00:13:47;;;;;;;;;59.75;45.25;;;;;;;;5084697;27;45382;-72
2022/12/03 00:16:12;;;;;;;;;64.50;48.00;;;;;;;;5087647;27;45302;-72
2022/12/03 00:18:37;;;;;;;;;59.00;43.50;;;;;;;;5083975;27;45252;-73
2022/12/03 00:21:02;;;;;;;;;57.75;44.75;;;;;;;;5088811;27;45355;-72
2022/12/03 00:23:27;;;;;;;;;54.25;43.75;;;;;;;;5094835;27;45430;-72
2022/12/03 00:25:53;;;;;;;;;58.75;45.50;;;;;;;;5086505;27;45290;-72
2022/12/03 00:28:18;;;;;;;;;47.50;37.75;;;;;;;;5086458;27;46953;-73
2022/12/03 00:30:43;;;;;;;;;56.00;43.50;;;;;;;;5090457;27;45426;-72
2022/12/03 00:33:08;;;;;;;;;48.50;41.50;;;;;;;;5081970;27;45572;-72
2022/12/03 00:35:33;;;;;;;;;59.50;42.25;;;;;;;;5088164;27;45437;-72
2022/12/03 00:37:59;;;;;;;;;55.75;44.25;;;;;;;;5081759;27;46187;-73
2022/12/03 00:40:24;;;;;;;;;58.00;46.25;;;;;;;;5088055;27;45336;-72
2022/12/03 00:42:49;;;;;;;;;58.25;44.75;;;;;;;;5081597;27;45537;-72
2022/12/03 00:45:14;;;;;;;;;52.25;45.00;;;;;;;;5084384;27;45414;-72
2022/12/03 00:47:40;;;;;;;;;61.00;45.00;;;;;;;;5081432;27;45484;-72
2022/12/03 00:50:05;;;;;;;;;38.50;38.00;;;;;;;;5088742;27;46455;-72
2022/12/03 00:52:30;;;;;;;;;57.75;43.50;;;;;;;;5086453;27;45336;-72
2022/12/03 00:54:55;;;;;;;;;59.75;44.00;;;;;;;;5087940;27;46163;-72
2022/12/03 00:57:20;;;;;;;;;56.50;44.75;;;;;;;;5087228;27;46242;-73
2022/12/03 00:59:46;;;;;;;;;54.75;44.00;;;;;;;;5084100;27;45176;-72
2022/12/03 01:02:11;;;;;;;;;63.75;50.50;;;;;;;;5082151;27;45413;-73
2022/12/03 01:04:36;;;;;;;;;66.75;48.75;;;;;;;;5086070;27;45499;-72
2022/12/03 01:07:01;;;;;;;;;51.50;39.25;;;;;;;;5081575;27;46493;-73
2022/12/03 01:09:26;;;;;;;;;47.75;39.50;;;;;;;;5084784;27;44764;-73
2022/12/03 01:11:52;;;;;;;;;62.00;45.25;;;;;;;;5081271;27;45297;-73
2022/12/03 01:14:18;;;;;;;;;58.50;42.25;;;;;;;;5086316;27;45386;-73
2022/12/03 01:16:43;;;;;;;;;61.75;45.00;;;;;;;;5083164;27;45472;-73
2022/12/03 01:19:09;;;;;;;;;63.75;49.00;;;;;;;;5086783;27;45194;-73
2022/12/03 01:21:35;;;;;;;;;52.75;40.75;;;;;;;;5081655;27;45489;-73
2022/12/03 01:24:00;;;;;;;;;64.50;50.25;;;;;;;;5083679;27;45494;-73
2022/12/03 01:26:25;;;;;;;;;59.50;43.75;;;;;;;;5085354;27;45525;-72
2022/12/03 01:28:51;;;;;;;;;50.25;41.00;;;;;;;;5083642;27;45406;-72
2022/12/03 01:34:00;;;;;;;;;58.00;45.00;;;;;;;;5086007;27;45394;-72
2022/12/03 01:36:25;;;;;;;;;62.00;49.00;;;;;;;;5082590;27;45991;-73
2022/12/03 01:38:50;;;;;;;;;57.00;42.00;;;;;;;;5081226;27;45467;-72
2022/12/03 01:41:16;;;;;;;;;62.25;46.25;;;;;;;;5081017;27;45267;-72
2022/12/03 01:43:42;;;;;;;;;70.00;47.00;;;;;;;;5080995;27;45268;-73
2022/12/03 01:46:08;;;;;;;;;60.25;48.00;;;;;;;;5086691;27;46737;-73
2022/12/03 01:48:34;;;;;;;;;63.50;46.00;;;;;;;;5082042;27;45304;-73
2022/12/03 01:50:59;;;;;;;;;63.50;45.00;;;;;;;;5085994;27;45313;-72
2022/12/03 01:53:24;;;;;;;;;56.50;45.25;;;;;;;;5097747;27;45631;-72
2022/12/03 01:55:50;;;;;;;;;58.25;46.25;;;;;;;;5089337;27;46284;-72
2022/12/03 01:58:15;;;;;;;;;54.25;41.25;;;;;;;;5080874;27;45205;-73
2022/12/03 02:00:40;;;;;;;;;52.00;37.50;;;;;;;;5086743;27;45215;-72
2022/12/03 02:03:15;;;;;;;;;67.75;51.00;;;;;;;;5080630;27;45457;-72
2022/12/03 02:05:41;;;;;;;;;59.50;46.25;;;;;;;;5081264;27;45426;-72
2022/12/03 02:08:25;;;;;;;;;59.25;46.25;;;;;;;;5087601;27;45438;-72
2022/12/03 02:10:51;;;;;;;;;56.00;41.25;;;;;;;;5083019;27;45282;-72
2022/12/03 02:13:16;;;;;;;;;61.00;44.25;;;;;;;;5080309;27;45538;-72
2022/12/03 02:15:41;;;;;;;;;61.75;50.50;;;;;;;;5082665;27;46462;-73
2022/12/03 02:18:07;;;;;;;;;66.25;45.50;;;;;;;;5078824;27;45272;-72
2022/12/03 02:20:36;;;;;;;;;47.25;41.50;;;;;;;;5082820;27;45314;-73
2022/12/03 02:23:09;;;;;;;;;58.00;41.25;;;;;;;;5078761;27;45710;-73
2022/12/03 02:25:35;;;;;;;;;60.25;45.00;;;;;;;;5089760;27;46283;-72
2022/12/03 02:28:01;;;;;;;;;64.50;46.25;;;;;;;;5079705;27;45362;-72
2022/12/03 02:30:27;;;;;;;;;62.00;40.00;;;;;;;;5087148;27;45472;-73
2022/12/03 02:32:53;;;;;;;;;61.75;44.50;;;;;;;;5080379;27;45154;-72
2022/12/03 02:35:20;;;;;;;;;60.50;45.00;;;;;;;;5086866;27;45612;-73
2022/12/03 02:37:46;;;;;;;;;56.00;42.25;;;;;;;;5080257;27;45164;-72
2022/12/03 02:40:16;;;;;;;;;60.00;42.75;;;;;;;;5082473;27;45443;-72
2022/12/03 02:42:41;;;;;;;;;58.00;44.25;;;;;;;;5079577;27;45335;-72
2022/12/03 02:45:12;;;;;;;;;59.75;44.00;;;;;;;;5082202;27;45404;-73
2022/12/03 02:48:26;;;;;;;;;56.00;44.50;;;;;;;;5107982;27;45557;-74
2022/12/03 02:50:53;;;;;;;;;54.25;41.25;;;;;;;;5048925;28;45295;-74
2022/12/03 02:53:43;;;;;;;;;57.75;46.25;;;;;;;;5071236;28;45332;-71
2022/12/03 02:56:09;;;;;;;;;49.00;40.25;;;;;;;;5056926;28;45357;-74
2022/12/03 02:58:34;;;;;;;;;78.33;57.67;;;;;;;;5071886;28;46305;-74
2022/12/03 03:01:01;;;;;;;;;55.00;44.50;;;;;;;;5057527;28;45230;-74
2022/12/03 03:03:27;;;;;;;;;60.00;41.50;;;;;;;;5074374;27;45292;-72
2022/12/03 03:05:55;;;;;;;;;58.50;44.25;;;;;;;;5058500;28;45428;-74
2022/12/03 03:08:20;;;;;;;;;55.75;42.50;;;;;;;;5058819;28;45618;-73
2022/12/03 03:10:46;;;;;;;;;60.50;45.00;;;;;;;;5062459;28;44878;-74
2022/12/03 03:13:12;;;;;;;;;60.25;45.25;;;;;;;;5062672;28;45273;-74
2022/12/03 03:15:39;;;;;;;;;58.25;41.25;;;;;;;;5065042;28;45498;-74
2022/12/03 03:18:04;;;;;;;;;53.25;40.50;;;;;;;;5065051;28;45408;-73
2022/12/03 03:20:29;;;;;;;;;55.50;36.75;;;;;;;;5066547;28;45311;-71
2022/12/03 03:23:03;;;;;;;;;55.25;41.75;;;;;;;;5070977;28;45272;-73
2022/12/03 03:25:28;;;;;;;;;51.25;42.25;;;;;;;;5067404;28;45478;-73
2022/12/03 03:27:53;;;;;;;;;73.50;53.75;;;;;;;;5069610;28;45323;-73
2022/12/03 03:30:19;;;;;;;;;81.67;60.33;;;;;;;;5068236;28;45415;-74
2022/12/03 03:32:44;;;;;;;;;57.50;43.50;;;;;;;;5074252;28;44784;-73
2022/12/03 03:35:09;;;;;;;;;65.00;48.50;;;;;;;;5064943;28;45316;-74
2022/12/03 03:37:35;;;;;;;;;62.75;44.25;;;;;;;;5056564;28;45959;-73
2022/12/03 03:40:00;;;;;;;;;49.75;37.50;;;;;;;;5059256;28;45353;-71
2022/12/03 03:42:26;;;;;;;;;63.75;44.25;;;;;;;;5058523;28;45316;-71
2022/12/03 03:44:51;;;;;;;;;50.00;40.00;;;;;;;;5063605;28;45333;-71
2022/12/03 03:47:17;;;;;;;;;50.75;41.50;;;;;;;;5043557;28;46250;-74
2022/12/03 03:49:42;;;;;;;;;58.00;43.25;;;;;;;;5067424;28;45257;-71
2022/12/03 03:52:10;;;;;;;;;52.50;40.50;;;;;;;;5077589;27;45348;-71
2022/12/03 03:54:35;;;;;;;;;53.50;38.50;;;;;;;;5067534;28;45452;-74
2022/12/03 03:57:01;;;;;;;;;58.75;41.50;;;;;;;;5062677;28;45407;-74
2022/12/03 03:59:27;;;;;;;;;53.75;44.25;;;;;;;;5055925;28;45394;-74
2022/12/03 04:01:52;;;;;;;;;65.75;45.50;;;;;;;;5042647;28;45304;-74
2022/12/03 04:04:20;;;;;;;;;41.25;38.00;;;;;;;;5043244;28;45207;-74
2022/12/03 04:06:46;;;;;;;;;53.25;39.75;;;;;;;;5044576;28;45278;-74
2022/12/03 04:09:11;;;;;;;;;52.25;42.25;;;;;;;;5044152;28;45736;-71
2022/12/03 04:14:20;;;;;;;;;41.25;36.50;;;;;;;;5045491;28;45316;-74
2022/12/03 04:16:45;;;;;;;;;48.75;42.25;;;;;;;;5051245;28;45365;-73
2022/12/03 04:19:10;;;;;;;;;50.00;40.50;;;;;;;;5048962;28;45455;-74
2022/12/03 04:24:36;;;;;;;;;55.75;41.25;;;;;;;;5036333;28;46135;-74
2022/12/03 04:29:45;;;;;;;;;58.25;43.25;;;;;;;;5051606;28;45199;-74
2022/12/03 04:37:38;;;;;;;;;57.00;40.50;;;;;;;;5043612;28;45238;-73
2022/12/03 04:40:59;;;;;;;;;55.75;43.50;;;;;;;;5045552;28;45139;-71
2022/12/03 04:42:49;;;;;;;;;68.67;53.67;;;;;;;;5047158;28;45339;-73
2022/12/03 04:45:14;;;;;;;;;49.75;40.50;;;;;;;;5047200;28;45500;-73
2022/12/03 04:47:39;;;;;;;;;51.75;39.50;;;;;;;;5049991;28;45383;-73
2022/12/03 04:50:05;;;;;;;;;51.75;40.50;;;;;;;;5048222;28;45668;-73
2022/12/03 04:52:30;;;;;;;;;51.75;40.75;;;;;;;;5051586;28;45273;-73
2022/12/03 04:54:55;;;;;;;;;65.50;51.00;;;;;;;;5053459;28;45277;-73
2022/12/03 04:57:20;;;;;;;;;51.00;40.50;;;;;;;;5059947;28;45563;-73
2022/12/03 04:59:45;;;;;;;;;51.75;40.50;;;;;;;;5050166;28;45251;-73
2022/12/03 05:02:10;;;;;;;;;56.25;38.50;;;;;;;;5057256;28;45185;-73
2022/12/03 05:04:36;;;;;;;;;43.00;37.75;;;;;;;;5053101;28;45155;-73
2022/12/03 05:07:01;;;;;;;;;43.75;38.25;;;;;;;;5050909;28;45296;-73
2022/12/03 05:09:26;;;;;;;;;44.25;36.00;;;;;;;;5045524;28;45281;-73
2022/12/03 05:11:51;;;;;;;;;49.25;37.75;;;;;;;;5056732;28;44742;-72
2022/12/03 05:14:16;;;;;;;;;57.75;38.75;;;;;;;;5050349;28;45237;-73
2022/12/03 05:16:42;;;;;;;;;49.25;40.25;;;;;;;;5055007;28;46003;-72
2022/12/03 05:19:07;;;;;;;;;56.25;37.75;;;;;;;;5053713;28;45376;-73
2022/12/03 05:21:33;;;;;;;;;48.50;37.75;;;;;;;;5057663;28;45349;-73
2022/12/03 05:23:58;;;;;;;;;50.50;39.00;;;;;;;;5035405;28;45364;-73
2022/12/03 05:26:23;;;;;;;;;28.00;24.75;;;;;;;;5058727;28;46976;-73
2022/12/03 05:28:48;;;;;;;;;55.75;40.75;;;;;;;;5046101;28;45339;-73
2022/12/03 05:31:14;;;;;;;;;44.50;38.75;;;;;;;;5046087;28;45290;-73
2022/12/03 05:33:39;;;;;;;;;50.25;39.50;;;;;;;;5029427;28;47043;-73
2022/12/03 05:36:04;;;;;;;;;51.25;37.75;;;;;;;;5051368;28;45295;-73
2022/12/03 05:38:29;;;;;;;;;48.25;41.25;;;;;;;;5050501;28;45262;-73
2022/12/03 05:40:55;;;;;;;;;47.50;40.00;;;;;;;;5051083;28;45504;-73
2022/12/03 05:43:20;;;;;;;;;49.25;37.75;;;;;;;;5034936;28;45498;-73
2022/12/03 05:45:45;;;;;;;;;50.00;39.75;;;;;;;;5051049;28;46206;-73
2022/12/03 05:48:11;;;;;;;;;51.50;38.00;;;;;;;;5055868;28;45439;-73
2022/12/03 05:50:38;;;;;;;;;42.25;36.75;;;;;;;;5051892;28;45313;-72
2022/12/03 05:53:03;;;;;;;;;49.75;37.00;;;;;;;;5057787;28;45255;-73
2022/12/03 05:55:28;;;;;;;;;48.50;38.50;;;;;;;;5046962;28;46095;-73
2022/12/03 05:57:54;;;;;;;;;41.75;35.25;;;;;;;;5059113;28;45207;-73
2022/12/03 06:00:23;;;;;;;;;54.00;40.50;;;;;;;;5044299;28;45266;-73
2022/12/03 06:02:48;;;;;;;;;52.25;40.75;;;;;;;;5046563;28;45273;-73
2022/12/03 06:05:14;;;;;;;;;396.33;299.33;;;;;;;;5046688;28;45317;-73
2022/12/03 06:07:40;;;;;;;;;64.00;48.33;;;;;;;;5028017;28;45329;-73
2022/12/03 06:10:07;;;;;;;;;123.67;94.33;;;;;;;;5032538;28;45471;-73
2022/12/03 06:12:32;;;;;;;;;48.00;39.00;;;;;;;;5049535;28;45518;-73
2022/12/03 06:14:58;;;;;;;;;301.67;249.67;;;;;;;;5042926;28;45422;-73
2022/12/03 06:17:23;;;;;;;;;75.00;59.00;;;;;;;;5053554;28;45350;-73
2022/12/03 06:19:48;;;;;;;;;82.00;60.67;;;;;;;;5044699;28;45451;-73
2022/12/03 06:22:14;;;;;;;;;159.00;132.67;;;;;;;;5055403;28;45388;-73
2022/12/03 06:24:39;;;;;;;;;68.00;53.67;;;;;;;;5049615;28;46034;-73
2022/12/03 06:27:04;;;;;;;;;62.25;48.50;;;;;;;;5057984;28;45317;-73
2022/12/03 06:29:29;;;;;;;;;78.00;58.00;;;;;;;;5037358;28;45234;-73
2022/12/03 06:31:54;;;;;;;;;51.75;44.50;;;;;;;;5040026;28;46377;-73
2022/12/03 06:34:20;;;;;;;;;108.33;89.33;;;;;;;;5063212;28;46326;-73
2022/12/03 06:36:45;;;;;;;;;74.33;54.33;;;;;;;;5025088;28;45150;-73
2022/12/03 06:39:11;;;;;;;;;100.75;79.00;;;;;;;;5046855;28;45468;-73
2022/12/03 06:41:36;;;;;;;;;69.00;54.00;;;;;;;;5046811;28;45392;-73
2022/12/03 06:44:01;;;;;;;;;59.75;46.75;;;;;;;;5047872;28;45544;-73
2022/12/03 06:46:27;;;;;;;;;81.00;61.67;;;;;;;;5051007;28;45482;-73
2022/12/03 06:48:52;;;;;;;;;84.33;65.00;;;;;;;;5049948;28;45159;-73
2022/12/03 06:51:17;;;;;;;;;69.33;51.00;;;;;;;;5049640;28;45201;-73
2022/12/03 06:53:42;;;;;;;;;67.00;50.25;;;;;;;;5051502;28;46306;-73
2022/12/03 06:56:07;;;;;;;;;44.25;35.75;;;;;;;;5050390;28;45162;-73
2022/12/03 06:58:33;;;;;;;;;52.00;43.75;;;;;;;;5054141;28;45221;-73
2022/12/03 07:00:58;;;;;;;;;60.00;39.75;;;;;;;;5052870;28;45367;-73
2022/12/03 07:03:23;;;;;;;;;52.75;38.50;;;;;;;;5056967;28;45988;-73
2022/12/03 07:05:48;;;;;;;;;105.67;95.67;;;;;;;;5044670;28;45423;-73
2022/12/03 07:08:13;;;;;;;;;53.75;45.00;;;;;;;;5043965;28;45466;-73
2022/12/03 07:10:38;;;;;;;;;80.00;61.00;;;;;;;;5037009;28;45451;-73
2022/12/03 07:13:04;;;;;;;;;83.00;63.00;;;;;;;;5046089;28;46326;-72
2022/12/03 07:15:29;;;;;;;;;50.00;43.75;;;;;;;;5050308;28;45419;-73
2022/12/03 07:17:54;;;;;;;;;64.00;50.25;;;;;;;;5052604;28;45305;-73
2022/12/03 07:20:19;;;;;;;;;51.00;42.50;;;;;;;;5048361;28;45304;-73
2022/12/03 07:22:44;;;;;;;;;72.00;55.33;;;;;;;;5051522;28;46195;-72
2022/12/03 07:25:10;;;;;;;;;55.50;41.50;;;;;;;;5050861;28;45280;-73
2022/12/03 07:27:35;;;;;;;;;43.25;36.25;;;;;;;;5038748;28;45325;-73
2022/12/03 07:30:00;;;;;;;;;69.67;51.33;;;;;;;;5050595;28;45280;-74
2022/12/03 07:32:25;;;;;;;;;77.67;58.00;;;;;;;;5051235;28;45553;-73
2022/12/03 07:34:50;;;;;;;;;76.33;58.00;;;;;;;;5046666;28;45433;-74
2022/12/03 07:37:16;;;;;;;;;67.33;55.67;;;;;;;;5023740;28;45355;-74
2022/12/03 07:39:41;;;;;;;;;64.67;48.33;;;;;;;;5043353;28;45506;-74
2022/12/03 07:42:08;;;;;;;;;67.67;50.33;;;;;;;;5041977;28;45411;-74
2022/12/03 07:44:33;;;;;;;;;63.00;47.75;;;;;;;;5045007;28;45384;-73
2022/12/03 07:46:58;;;;;;;;;58.25;46.00;;;;;;;;5043094;28;45414;-73
2022/12/03 07:49:25;;;;;;;;;72.67;52.00;;;;;;;;5044792;28;45269;-74
2022/12/03 07:51:53;;;;;;;;;44.00;40.00;;;;;;;;5041331;28;45305;-74
2022/12/03 07:54:19;;;;;;;;;150.00;130.75;;;;;;;;5044186;28;45315;-73
2022/12/03 07:56:46;;;;;;;;;85.67;62.33;;;;;;;;5043020;28;45294;-73
2022/12/03 07:59:11;;;;;;;;;43.00;37.75;;;;;;;;5043208;28;45433;-73
2022/12/03 08:01:37;;;;;;;;;74.33;53.67;;;;;;;;5042488;28;46027;-75
2022/12/03 08:04:02;;;;;;;;;67.00;53.00;;;;;;;;5044287;28;45403;-73
2022/12/03 08:06:27;;;;;;;;;67.75;46.25;;;;;;;;5041352;28;45241;-73
2022/12/03 08:08:52;;;;;;;;;73.00;55.67;;;;;;;;5043676;28;45308;-73
2022/12/03 08:11:17;;;;;;;;;44.75;36.00;;;;;;;;5028590;28;46983;-73
2022/12/03 08:13:43;;;;;;;;;154.33;120.33;;;;;;;;5044437;28;45348;-74
2022/12/03 08:16:14;;;;;;;;;86.67;62.67;;;;;;;;5041206;28;45353;-73
2022/12/03 08:18:39;;;;;;;;;82.00;59.00;;;;;;;;5043662;28;45381;-73
2022/12/03 08:21:07;;;;;;;;;65.67;53.00;;;;;;;;5042047;28;45314;-74
2022/12/03 08:23:33;;;;;;;;;76.67;56.33;;;;;;;;5044208;28;45518;-74
2022/12/03 08:26:00;;;;;;;;;66.00;51.25;;;;;;;;5041615;28;45414;-73
2022/12/03 08:28:26;;;;;;;;;132.25;106.75;;;;;;;;5043007;28;45594;-74
2022/12/03 08:31:00;;;;;;;;;55.25;43.00;;;;;;;;5042154;28;45916;-73
2022/12/03 08:33:34;;;;;;;;;73.00;57.33;;;;;;;;5028066;28;45486;-74
2022/12/03 08:36:00;;;;;;;;;63.25;46.75;;;;;;;;5054125;28;45253;-74
2022/12/03 08:38:26;;;;;;;;;55.75;40.75;;;;;;;;5057574;28;45339;-74
2022/12/03 08:40:51;;;;;;;;;70.00;51.25;;;;;;;;5056271;28;45343;-73
2022/12/03 08:43:24;;;;;;;;;86.67;64.00;;;;;;;;5049388;28;45554;-74
2022/12/03 08:45:50;;;;;;;;;74.33;55.00;;;;;;;;5026694;28;45507;-73
2022/12/03 08:48:31;;;;;;;;;74.67;55.33;;;;;;;;5042608;28;45223;-73
2022/12/03 08:51:02;;;;;;;;;65.67;51.33;;;;;;;;5046160;28;45373;-73
2022/12/03 08:53:27;;;;;;;;;80.00;57.33;;;;;;;;5044858;28;45475;-73
2022/12/03 08:55:54;;;;;;;;;67.67;55.00;;;;;;;;5050371;28;45224;-74
2022/12/03 08:58:37;;;;;;;;;63.00;48.75;;;;;;;;5051299;28;45344;-73
2022/12/03 09:01:09;;;;;;;;;53.50;42.50;;;;;;;;5050867;28;44951;-73
2022/12/03 09:03:34;;;;;;;;;55.50;43.75;;;;;;;;5049056;28;45456;-74
2022/12/03 09:05:59;;;;;;;;;69.00;51.00;;;;;;;;5053489;28;45265;-73
2022/12/03 09:08:24;;;;;;;;;80.33;61.67;;;;;;;;5051120;28;45268;-73
2022/12/03 09:10:50;;;;;;;;;37.75;32.50;;;;;;;;5052257;28;45440;-73
2022/12/03 09:13:15;;;;;;;;;61.75;47.50;;;;;;;;5056170;28;45371;-73
2022/12/03 09:15:40;;;;;;;;;50.25;42.25;;;;;;;;5048666;28;45493;-73
2022/12/03 09:18:06;;;;;;;;;63.25;45.00;;;;;;;;5048043;28;45197;-73
2022/12/03 09:20:31;;;;;;;;;67.67;53.00;;;;;;;;5051495;28;45362;-73
2022/12/03 09:22:57;;;;;;;;;54.25;38.50;;;;;;;;5054414;28;45855;-73
2022/12/03 09:25:22;;;;;;;;;70.75;50.00;;;;;;;;5053104;28;45160;-73
2022/12/03 09:27:47;;;;;;;;;65.75;49.25;;;;;;;;5035319;28;46310;-73
2022/12/03 09:30:13;;;;;;;;;96.00;73.00;;;;;;;;5038990;28;46914;-73
2022/12/03 09:32:38;;;;;;;;;62.75;44.50;;;;;;;;5054959;28;45225;-73
2022/12/03 09:35:03;;;;;;;;;40.25;38.25;;;;;;;;5045544;28;44796;-73
2022/12/03 09:37:29;;;;;;;;;70.00;52.33;;;;;;;;5042693;28;45269;-73
2022/12/03 09:39:54;;;;;;;;;68.67;53.33;;;;;;;;5043370;28;45409;-73
2022/12/03 09:42:19;;;;;;;;;69.75;51.50;;;;;;;;5041254;28;45377;-73
2022/12/03 09:44:45;;;;;;;;;67.75;52.25;;;;;;;;5047426;28;45352;-73
2022/12/03 09:47:10;;;;;;;;;75.00;57.00;;;;;;;;5043090;28;45536;-73
2022/12/03 09:49:36;;;;;;;;;68.00;53.67;;;;;;;;5050395;28;46222;-73
2022/12/03 09:52:02;;;;;;;;;49.25;39.50;;;;;;;;5045395;28;45351;-73
2022/12/03 09:54:28;;;;;;;;;84.00;61.33;;;;;;;;5052744;28;45390;-73
2022/12/03 09:56:54;;;;;;;;;67.33;49.67;;;;;;;;5046315;28;45373;-73
2022/12/03 09:59:20;;;;;;;;;87.67;64.67;;;;;;;;5050621;28;45285;-73
2022/12/03 10:01:45;;;;;;;;;84.33;65.67;;;;;;;;5049502;28;45226;-73
2022/12/03 10:04:11;;;;;;;;;57.50;43.25;;;;;;;;5052580;28;45176;-73
2022/12/03 10:06:37;;;;;;;;;28.75;25.50;;;;;;;;5054524;28;45191;-73
2022/12/03 10:09:02;;;;;;;;;32.50;28.25;;;;;;;;5054939;28;47342;-72
2022/12/03 10:11:28;;;;;;;;;66.50;48.25;;;;;;;;5042907;28;45261;-73
2022/12/03 10:13:55;;;;;;;;;59.50;47.50;;;;;;;;5043338;28;45249;-73
2022/12/03 10:16:20;;;;;;;;;79.33;60.67;;;;;;;;5025802;28;45819;-73
2022/12/03 10:18:53;;;;;;;;;60.25;45.00;;;;;;;;5045290;28;45623;-73
2022/12/03 10:21:18;;;;;;;;;49.00;41.00;;;;;;;;5044448;28;45262;-73
2022/12/03 10:23:44;;;;;;;;;62.00;44.75;;;;;;;;5034533;28;45425;-73
2022/12/03 10:26:09;;;;;;;;;81.33;59.00;;;;;;;;5053981;28;45353;-72
2022/12/03 10:28:36;;;;;;;;;74.00;55.33;;;;;;;;5054058;28;46288;-72
2022/12/03 10:31:03;;;;;;;;;56.75;45.00;;;;;;;;5050574;28;45368;-72
2022/12/03 10:33:29;;;;;;;;;70.67;54.00;;;;;;;;5057053;28;45357;-73
2022/12/03 10:35:54;;;;;;;;;112.75;90.00;;;;;;;;5036761;28;46120;-73
2022/12/03 10:38:24;;;;;;;;;65.50;48.00;;;;;;;;5051920;28;45235;-72
2022/12/03 10:40:49;;;;;;;;;38.50;35.25;;;;;;;;5044728;28;45330;-72
2022/12/03 10:43:17;;;;;;;;;50.75;41.75;;;;;;;;5042252;28;45635;-72
2022/12/03 10:45:44;;;;;;;;;46.50;40.75;;;;;;;;5046405;28;45408;-73
2022/12/03 10:48:12;;;;;;;;;104.33;84.00;;;;;;;;5046300;28;45763;-72
2022/12/03 10:50:44;;;;;;;;;68.50;53.75;;;;;;;;5047679;28;45403;-74
2022/12/03 10:53:10;;;;;;;;;81.00;60.00;;;;;;;;5051320;28;45289;-73
2022/12/03 10:55:37;;;;;;;;;77.33;59.33;;;;;;;;5035704;28;46997;-72
2022/12/03 10:58:02;;;;;;;;;47.25;40.50;;;;;;;;5056445;28;45358;-72
2022/12/03 11:00:28;;;;;;;;;75.67;59.33;;;;;;;;5046819;28;46578;-73
2022/12/03 11:02:53;;;;;;;;;70.00;54.00;;;;;;;;5056957;28;45197;-73
2022/12/03 11:05:20;;;;;;;;;49.50;41.25;;;;;;;;5049158;28;45423;-73
2022/12/03 11:07:45;;;;;;;;;57.00;48.75;;;;;;;;5045888;28;45998;-74
2022/12/03 11:10:15;;;;;;;;;64.25;52.25;;;;;;;;5048986;28;45325;-73
2022/12/03 11:12:40;;;;;;;;;62.00;45.25;;;;;;;;5042485;28;45321;-74
2022/12/03 11:15:12;;;;;;;;;43.25;37.75;;;;;;;;5051433;28;45318;-73
2022/12/03 11:17:51;;;;;;;;;36.25;32.00;;;;;;;;5061049;28;45351;-73
2022/12/03 11:20:19;;;;;;;;;67.33;53.00;;;;;;;;5055586;28;45472;-71
2022/12/03 11:22:46;;;;;;;;;47.50;40.50;;;;;;;;5048163;28;45837;-71
2022/12/03 11:25:23;;;;;;;;;83.33;61.67;;;;;;;;5045386;28;45475;-72
2022/12/03 11:28:21;;;;;;;;;52.00;38.50;;;;;;;;5053338;28;45376;-72
2022/12/03 11:30:50;;;;;;;;;66.67;51.67;;;;;;;;4977082;28;45735;-73
2022/12/03 11:33:22;;;;;;;;;38.75;29.25;;;;;;;;5048330;28;45714;-72
2022/12/03 11:36:18;;;;;;;;;61.25;52.00;;;;;;;;5035864;28;46592;-72
2022/12/03 11:38:48;;;;;;;;;92.67;67.00;;;;;;;;5035487;28;46186;-73
2022/12/03 11:41:27;;;;;;;;;74.33;54.33;;;;;;;;5059201;28;45321;-72
2022/12/03 11:43:52;;;;;;;;;97.00;74.00;;;;;;;;5058479;28;45304;-72
2022/12/03 11:46:22;;;;;;;;;80.67;59.33;;;;;;;;5024062;28;46343;-72
2022/12/03 11:48:48;;;;;;;;;71.25;54.25;;;;;;;;5043542;28;45554;-72
2022/12/03 11:51:15;;;;;;;;;52.25;38.50;;;;;;;;5045359;28;45452;-72
2022/12/03 11:53:42;;;;;;;;;73.00;58.00;;;;;;;;5026860;28;45294;-73
2022/12/03 11:56:07;;;;;;;;;118.33;98.00;;;;;;;;5048846;28;45187;-72
2022/12/03 11:58:34;;;;;;;;;78.33;58.33;;;;;;;;5053284;28;45861;-73
2022/12/03 12:01:00;;;;;;;;;51.25;41.25;;;;;;;;5053228;28;45615;-73
2022/12/03 12:03:40;;;;;;;;;47.75;37.50;;;;;;;;5048783;28;45706;-73
2022/12/03 12:06:06;;;;;;;;;40.50;32.50;;;;;;;;5051423;28;45456;-73
2022/12/03 12:08:32;;;;;;;;;48.50;40.75;;;;;;;;5054607;28;46148;-73
2022/12/03 12:10:58;;;;;;;;;61.75;47.25;;;;;;;;5035612;28;45167;-73
2022/12/03 12:13:27;;;;;;;;;139.75;116.75;;;;;;;;5053012;28;45183;-73
2022/12/03 12:15:52;;;;;;;;;43.00;37.25;;;;;;;;5033525;28;46101;-73
2022/12/03 12:18:33;;;;;;;;;72.67;57.33;;;;;;;;5042028;28;45286;-73
2022/12/03 12:21:17;;;;;;;;;74.33;59.33;;;;;;;;5045861;28;45316;-73
2022/12/03 12:23:43;;;;;;;;;33.00;27.75;;;;;;;;5044599;28;45389;-73
2022/12/03 12:26:08;;;;;;;;;38.50;35.00;;;;;;;;5046254;28;45261;-72
2022/12/03 12:28:33;;;;;;;;;67.25;53.25;;;;;;;;5030316;28;47128;-72
2022/12/03 12:30:58;;;;;;;;;77.00;55.25;;;;;;;;5048601;28;45262;-72
2022/12/03 12:33:24;;;;;;;;;91.33;68.67;;;;;;;;5052106;28;44773;-72
2022/12/03 12:35:50;;;;;;;;;63.25;52.50;;;;;;;;5051092;28;45410;-71
2022/12/03 12:38:19;;;;;;;;;68.00;49.50;;;;;;;;5056692;28;45385;-72
2022/12/03 12:40:48;;;;;;;;;43.50;37.75;;;;;;;;5049273;28;45310;-72
2022/12/03 12:43:18;;;;;;;;;51.50;42.00;;;;;;;;5042024;28;45290;-72
2022/12/03 12:45:44;;;;;;;;;75.00;58.33;;;;;;;;5052732;28;45602;-72
2022/12/03 12:48:09;;;;;;;;;148.25;116.75;;;;;;;;5041144;28;46945;-72
2022/12/03 12:50:38;;;;;;;;;77.50;57.75;;;;;;;;5054922;28;45400;-72
2022/12/03 12:53:23;;;;;;;;;41.50;39.50;;;;;;;;5059304;28;45360;-72
2022/12/03 12:55:48;;;;;;;;;33.50;29.25;;;;;;;;5050428;28;45424;-71
2022/12/03 12:58:18;;;;;;;;;34.75;30.75;;;;;;;;5059372;28;45309;-72
2022/12/03 13:00:51;;;;;;;;;35.25;29.00;;;;;;;;5051385;28;45342;-72
2022/12/03 13:03:17;;;;;;;;;31.75;25.75;;;;;;;;5059961;28;45418;-72
2022/12/03 13:05:45;;;;;;;;;39.00;32.75;;;;;;;;5052578;28;45485;-72
2022/12/03 13:08:19;;;;;;;;;59.25;45.25;;;;;;;;5059274;28;45256;-72
2022/12/03 13:10:44;;;;;;;;;57.25;40.25;;;;;;;;5052466;28;45637;-72
2022/12/03 13:13:14;;;;;;;;;35.75;29.75;;;;;;;;5059576;28;45663;-72
2022/12/03 13:15:52;;;;;;;;;34.75;27.25;;;;;;;;5050659;28;45531;-72
2022/12/03 13:18:35;;;;;;;;;44.75;36.75;;;;;;;;5058560;28;45320;-72
2022/12/03 13:21:12;;;;;;;;;83.67;63.33;;;;;;;;5055385;28;45474;-72
2022/12/03 13:23:38;;;;;;;;;51.25;40.00;;;;;;;;5057332;28;45298;-73
2022/12/03 13:26:13;;;;;;;;;49.50;40.50;;;;;;;;5055619;28;45427;-72
2022/12/03 13:28:39;;;;;;;;;97.00;74.67;;;;;;;;5056887;28;46808;-72
2022/12/03 13:31:19;;;;;;;;;39.75;33.50;;;;;;;;5055230;28;45427;-72
2022/12/03 13:33:44;;;;;;;;;33.50;31.50;;;;;;;;5039128;28;45547;-72
2022/12/03 13:36:11;;;;;;;;;26.00;24.25;;;;;;;;5056290;28;44820;-72
2022/12/03 13:38:36;;;;;;;;;36.00;30.00;;;;;;;;5039013;28;47078;-72
2022/12/03 13:41:02;;;;;;;;;76.33;56.00;;;;;;;;5069537;28;45289;-72
2022/12/03 13:43:29;;;;;;;;;42.25;35.00;;;;;;;;5058401;28;45358;-72
2022/12/03 13:45:54;;;;;;;;;75.00;54.50;;;;;;;;5054860;28;45258;-72
2022/12/03 13:48:20;;;;;;;;;32.25;29.50;;;;;;;;5039015;28;46874;-71
2022/12/03 13:50:45;;;;;;;;;33.50;25.00;;;;;;;;5039685;28;45357;-72
2022/12/03 13:53:10;;;;;;;;;21.50;21.25;;;;;;;;5048301;28;45205;-71
2022/12/03 13:55:37;;;;;;;;;41.50;35.50;;;;;;;;5047543;28;45591;-71
2022/12/03 13:58:02;;;;;;;;;94.33;72.00;;;;;;;;5045090;28;45223;-71
2022/12/03 14:00:27;;;;;;;;;56.50;41.50;;;;;;;;5047914;28;45333;-72
2022/12/03 14:02:53;;;;;;;;;95.33;70.67;;;;;;;;5051745;28;44580;-72
2022/12/03 14:05:18;;;;;;;;;37.75;33.00;;;;;;;;5046638;28;44766;-71
2022/12/03 14:07:43;;;;;;;;;28.25;24.75;;;;;;;;5042146;28;46077;-72
2022/12/03 14:10:10;;;;;;;;;27.25;24.00;;;;;;;;5043703;28;44721;-72
2022/12/03 14:12:35;;;;;;;;;55.00;46.00;;;;;;;;5049519;28;45267;-71
2022/12/03 14:15:01;;;;;;;;;66.75;52.75;;;;;;;;5039374;28;46194;-71
2022/12/03 14:17:27;;;;;;;;;49.75;39.25;;;;;;;;5051693;28;45887;-71
2022/12/03 14:19:52;;;;;;;;;39.25;34.00;;;;;;;;5050999;28;45503;-72
2022/12/03 14:22:21;;;;;;;;;72.75;53.25;;;;;;;;5049764;28;45336;-71
2022/12/03 14:24:47;;;;;;;;;36.00;33.00;;;;;;;;5047239;28;45486;-71
2022/12/03 14:27:12;;;;;;;;;41.50;36.00;;;;;;;;5052983;28;45576;-72
2022/12/03 14:29:37;;;;;;;;;26.25;23.25;;;;;;;;5052396;28;45159;-73
2022/12/03 14:32:02;;;;;;;;;44.50;38.50;;;;;;;;5049719;28;45282;-71